Time;durP1;ratioP1;P1;durP2;ratioP2;P2;SDS_P1;SDS_P2;PMS_P1;PMS_P2;Temp;Humidity;BMP_temperature;BMP_pressure;BME280_temperature;BME280_humidity;BME280_pressure;Samples;Min_cycle;Max_cycle;Signal;HPM_P1;HPM_P2
2022/06/16 00:01:46;;;;;;;3.20;1.20;;;;;;;16.11;39.64;100943.89;117360;1185;22971;-55
2022/06/16 00:04:14;;;;;;;3.40;1.10;;;;;;;16.05;39.55;100941.77;117365;1186;21846;-55
2022/06/16 00:06:42;;;;;;;5.80;1.40;;;;;;;15.98;39.66;100939.27;117457;1185;23600;-50
2022/06/16 00:09:09;;;;;;;2.60;1.00;;;;;;;15.96;39.72;100940.58;117484;1186;22607;-55
2022/06/16 00:11:36;;;;;;;3.50;1.10;;;;;;;15.95;39.89;100943.95;117434;1185;23551;-55
2022/06/16 00:14:03;;;;;;;3.40;1.20;;;;;;;15.93;39.91;100948.25;117364;1185;22686;-55
2022/06/16 00:16:30;;;;;;;3.00;1.40;;;;;;;15.94;40.15;100947.01;117356;1186;24764;-50
2022/06/16 00:18:58;;;;;;;3.70;1.80;;;;;;;15.89;40.13;100943.74;117410;1186;21921;-55
2022/06/16 00:21:25;;;;;;;4.50;1.50;;;;;;;15.82;40.21;100945.86;117446;1183;23560;-56
2022/06/16 00:23:52;;;;;;;3.60;1.50;;;;;;;15.71;40.19;100942.23;117160;1186;22918;-55
2022/06/16 00:26:22;;;;;;;5.30;1.60;;;;;;;15.59;40.33;100938.27;117454;1186;21849;-50
2022/06/16 00:28:50;;;;;;;6.80;1.40;;;;;;;15.53;40.47;100941.95;117387;1185;23599;-50
2022/06/16 00:31:20;;;;;;;44.50;3.10;;;;;;;15.55;40.57;100941.73;117205;1183;23656;-50
2022/06/16 00:33:47;;;;;;;7.80;2.30;;;;;;;15.57;40.68;100944.50;117336;1185;21848;-55
2022/06/16 00:36:14;;;;;;;3.50;1.20;;;;;;;15.59;40.77;100940.58;117352;1186;23564;-50
2022/06/16 00:38:41;;;;;;;6.10;1.60;;;;;;;15.62;40.82;100938.91;117188;1181;22627;-55
2022/06/16 00:41:09;;;;;;;4.50;1.20;;;;;;;15.67;40.90;100939.68;117412;1184;21839;-55
2022/06/16 00:43:37;;;;;;;4.40;1.30;;;;;;;15.75;40.87;100939.84;117347;1185;22727;-49
2022/06/16 00:46:12;;;;;;;5.70;1.70;;;;;;;15.87;40.92;100934.77;117354;1186;22154;-49
2022/06/16 00:48:59;;;;;;;3.30;1.40;;;;;;;15.90;40.90;100935.57;117325;1185;23475;-55
2022/06/16 00:51:30;;;;;;;2.90;1.50;;;;;;;15.94;40.88;100936.02;117359;1185;22620;-55
2022/06/16 00:54:06;;;;;;;7.50;1.10;;;;;;;15.93;40.72;100933.39;117402;1186;22793;-50
2022/06/16 00:56:34;;;;;;;5.30;1.20;;;;;;;15.92;40.80;100935.35;117267;1183;23599;-49
2022/06/16 00:59:02;;;;;;;4.40;1.30;;;;;;;15.95;40.87;100931.23;117232;1182;23646;-49
2022/06/16 01:01:29;;;;;;;5.10;1.40;;;;;;;15.98;41.03;100929.36;117289;1186;23532;-55
2022/06/16 01:06:43;;;;;;;3.20;1.50;;;;;;;16.18;41.13;100930.79;117354;1182;22918;-55
2022/06/16 01:09:17;;;;;;;3.60;1.40;;;;;;;16.29;41.15;100934.06;117382;1185;22940;-50
2022/06/16 01:15:10;;;;;;;4.40;1.60;;;;;;;16.48;41.16;100929.81;117280;1186;23564;-50
2022/06/16 01:17:51;;;;;;;4.10;1.70;;;;;;;16.61;41.28;100927.14;117311;1186;22915;-49
2022/06/16 01:20:37;;;;;;;3.40;1.70;;;;;;;16.72;41.22;100928.77;117365;1186;21852;-49
2022/06/16 01:23:29;;;;;;;3.90;1.60;;;;;;;16.81;41.08;100924.25;117338;1183;23538;-55
2022/06/16 01:26:02;;;;;;;4.80;1.60;;;;;;;16.87;41.09;100924.26;117293;1186;22702;-56
2022/06/16 01:28:31;;;;;;;7.20;2.00;;;;;;;16.93;41.08;100924.98;117207;1185;23549;-55
2022/06/16 01:31:09;;;;;;;5.10;2.00;;;;;;;16.99;41.02;100920.55;117445;1185;21847;-50
2022/06/16 01:33:40;;;;;;;3.70;1.60;;;;;;;17.07;41.02;100920.15;117346;1182;21849;-49
2022/06/16 01:36:21;;;;;;;5.90;1.90;;;;;;;17.12;41.10;100919.64;117416;1183;22985;-55
2022/06/16 01:38:56;;;;;;;5.00;1.70;;;;;;;17.12;40.98;100918.22;117337;1186;23532;-49
2022/06/16 01:41:27;;;;;;;4.30;2.10;;;;;;;17.21;41.08;100919.88;117357;1185;21880;-49
2022/06/16 01:44:15;;;;;;;7.10;2.20;;;;;;;17.26;40.94;100915.65;117337;1186;24171;-55
2022/06/16 01:46:42;;;;;;;4.30;2.10;;;;;;;17.29;40.85;100920.34;117225;1189;21978;-55
2022/06/16 01:49:14;;;;;;;4.10;2.40;;;;;;;17.27;40.96;100920.04;116984;1188;21851;-49
2022/06/16 01:51:42;;;;;;;6.20;2.20;;;;;;;17.27;40.94;100921.67;117336;1183;21852;-55
2022/06/16 01:54:13;;;;;;;6.10;2.30;;;;;;;17.27;40.95;100919.17;117349;1185;22616;-55
2022/06/16 01:56:47;;;;;;;4.90;1.90;;;;;;;17.27;40.92;100922.70;117368;1180;22969;-55
2022/06/16 01:59:39;;;;;;;5.90;2.10;;;;;;;17.31;41.03;100921.34;117356;1186;21852;-55
2022/06/16 02:02:13;;;;;;;8.20;1.90;;;;;;;17.33;40.96;100923.22;117323;1186;24859;-54
2022/06/16 02:04:50;;;;;;;7.30;2.00;;;;;;;17.37;41.02;100927.35;117374;1188;22624;-55
2022/06/16 02:07:24;;;;;;;4.00;1.80;;;;;;;17.43;41.02;100928.98;117353;1185;24200;-55
2022/06/16 02:09:54;;;;;;;6.60;2.00;;;;;;;17.48;41.17;100927.36;117382;1185;23541;-54
2022/06/16 02:15:21;;;;;;;3.80;2.00;;;;;;;17.64;41.17;100924.02;117173;1185;23541;-56
2022/06/16 02:17:48;;;;;;;4.40;1.90;;;;;;;17.70;41.14;100920.80;117276;1186;24206;-55
2022/06/16 02:20:15;;;;;;;6.20;3.00;;;;;;;17.75;41.11;100924.37;117289;1186;23553;-49
2022/06/16 02:22:42;;;;;;;5.00;2.20;;;;;;;17.79;41.18;100919.78;117101;1186;22646;-50
2022/06/16 02:25:09;;;;;;;4.20;2.10;;;;;;;17.84;41.06;100925.83;117347;1186;21871;-49
2022/06/16 02:27:36;;;;;;;5.40;1.80;;;;;;;17.88;41.02;100930.69;117257;1183;23630;-55
2022/06/16 02:30:04;;;;;;;4.10;1.90;;;;;;;17.91;41.06;100931.27;117353;1186;23534;-55
2022/06/16 02:32:55;;;;;;;5.30;1.70;;;;;;;17.93;41.01;100931.02;117202;1187;22816;-56
2022/06/16 02:35:31;;;;;;;6.40;2.30;;;;;;;17.98;41.12;100927.15;117353;1183;22931;-55
2022/06/16 02:38:40;;;;;;;5.30;1.90;;;;;;;18.04;40.98;100925.19;117418;1188;22649;-50
2022/06/16 02:41:27;;;;;;;7.80;2.60;;;;;;;18.07;41.07;100926.35;117342;1183;23635;-56
2022/06/16 02:44:13;;;;;;;8.30;2.50;;;;;;;18.10;41.17;100929.98;117357;1185;21964;-56
2022/06/16 02:46:47;;;;;;;7.50;2.10;;;;;;;18.16;41.17;100935.80;117354;1185;22174;-56
2022/06/16 02:49:39;;;;;;;3.60;1.90;;;;;;;18.20;41.18;100936.17;117201;1188;21913;-50
2022/06/16 02:52:31;;;;;;;5.50;1.80;;;;;;;18.25;41.17;100935.27;117351;1185;23519;-51
2022/06/16 02:55:06;;;;;;;6.30;2.10;;;;;;;18.38;41.05;100935.38;117324;1186;22716;-55
2022/06/16 02:57:55;;;;;;;6.30;2.10;;;;;;;18.45;41.04;100936.17;117283;1183;23573;-50
2022/06/16 03:00:26;;;;;;;9.60;2.80;;;;;;;18.53;41.02;100934.84;117382;1184;24155;-55
2022/06/16 03:02:53;;;;;;;4.60;2.20;;;;;;;18.57;41.01;100933.41;117336;1186;21925;-56
2022/06/16 03:05:20;;;;;;;4.20;1.90;;;;;;;18.63;40.90;100931.64;117334;1186;22985;-50
2022/06/16 03:07:47;;;;;;;5.20;1.90;;;;;;;18.68;40.96;100929.14;117342;1185;23701;-50
2022/06/16 03:10:50;;;;;;;9.60;2.50;;;;;;;18.73;40.91;100928.04;117267;1185;24132;-51
2022/06/16 03:13:03;;;;;;;5.50;2.20;;;;;;;18.77;41.00;100926.29;117320;1185;22612;-56
2022/06/16 03:15:30;;;;;;;5.30;2.00;;;;;;;18.85;40.97;100928.66;117302;1183;24271;-51
2022/06/16 03:17:57;;;;;;;6.70;2.40;;;;;;;18.92;40.92;100930.90;117377;1186;22082;-55
2022/06/16 03:20:24;;;;;;;7.20;2.50;;;;;;;19.00;40.96;100932.20;117325;1185;22828;-50
2022/06/16 03:22:51;;;;;;;11.70;3.20;;;;;;;19.07;41.14;100933.71;117354;1186;23577;-51
2022/06/16 03:25:18;;;;;;;9.80;2.40;;;;;;;19.16;41.02;100934.96;117382;1186;21878;-51
2022/06/16 03:27:46;;;;;;;9.90;2.80;;;;;;;19.24;41.15;100933.24;117370;1183;22641;-52
2022/06/16 03:30:13;;;;;;;11.30;2.70;;;;;;;19.35;41.08;100932.61;117436;1186;22616;-51
2022/06/16 03:32:40;;;;;;;8.00;1.90;;;;;;;19.50;41.09;100933.45;117282;1186;23803;-56
2022/06/16 03:35:07;;;;;;;5.20;2.00;;;;;;;19.64;41.08;100932.88;117308;1188;21859;-55
2022/06/16 03:37:34;;;;;;;5.50;1.90;;;;;;;19.81;41.16;100932.55;117374;1182;22947;-53
2022/06/16 03:40:03;;;;;;;5.40;1.50;;;;;;;20.05;40.88;100929.79;117486;1182;24216;-51
2022/06/16 03:42:30;;;;;;;7.10;1.60;;;;;;;20.21;40.73;100930.70;117455;1185;23557;-51
2022/06/16 03:44:57;;;;;;;4.80;1.60;;;;;;;20.31;40.70;100933.27;117429;1186;23634;-51
2022/06/16 03:47:24;;;;;;;3.70;1.60;;;;;;;20.49;40.45;100928.57;117361;1186;24196;-51
2022/06/16 03:49:53;;;;;;;5.70;1.70;;;;;;;20.61;40.39;100932.47;117420;1186;22639;-56
2022/06/16 03:52:21;;;;;;;4.30;1.80;;;;;;;20.68;40.38;100930.89;117432;1185;21852;-52
2022/06/16 03:54:48;;;;;;;8.60;1.90;;;;;;;20.74;40.34;100931.89;117416;1186;23541;-56
2022/06/16 03:57:15;;;;;;;4.40;1.70;;;;;;;20.84;40.32;100930.54;117420;1182;23540;-55
2022/06/16 03:59:42;;;;;;;5.00;1.70;;;;;;;20.93;40.24;100935.33;117331;1186;23466;-51
2022/06/16 04:02:09;;;;;;;9.20;1.90;;;;;;;20.99;40.17;100933.81;117373;1183;23536;-55
2022/06/16 04:04:37;;;;;;;6.40;1.90;;;;;;;21.16;39.90;100934.98;117401;1185;21938;-56
2022/06/16 04:07:05;;;;;;;3.70;1.50;;;;;;;21.25;39.85;100935.95;117410;1185;23011;-56
2022/06/16 04:09:31;;;;;;;2.90;1.70;;;;;;;21.32;39.75;100939.73;117483;1185;22841;-54
2022/06/16 04:11:58;;;;;;;4.70;1.90;;;;;;;21.39;39.61;100945.29;117432;1185;23284;-56
2022/06/16 04:14:25;;;;;;;4.40;1.70;;;;;;;21.44;39.58;100947.73;117405;1186;24145;-56
2022/06/16 04:16:54;;;;;;;4.80;1.50;;;;;;;21.47;39.61;100949.54;117342;1185;21848;-55
2022/06/16 04:19:22;;;;;;;3.70;1.60;;;;;;;21.51;39.55;100947.91;117457;1180;23816;-56
2022/06/16 04:21:49;;;;;;;5.00;1.80;;;;;;;21.59;39.52;100943.98;117448;1182;21852;-56
2022/06/16 04:24:16;;;;;;;6.50;1.70;;;;;;;21.68;39.53;100943.52;117405;1185;22607;-56
2022/06/16 04:26:45;;;;;;;4.70;1.70;;;;;;;21.77;39.42;100944.35;117276;1185;21957;-57
2022/06/16 04:29:12;;;;;;;4.30;1.70;;;;;;;21.86;39.41;100942.80;117355;1182;22918;-54
2022/06/16 04:31:40;;;;;;;2.90;1.40;;;;;;;21.95;39.35;100941.47;117419;1179;22902;-60
2022/06/16 04:34:11;;;;;;;6.30;2.00;;;;;;;22.05;39.32;100942.05;117253;1180;22912;-53
2022/06/16 04:36:38;;;;;;;5.40;1.50;;;;;;;22.14;39.15;100942.30;117335;1182;24197;-56
2022/06/16 04:39:05;;;;;;;4.10;1.70;;;;;;;22.24;39.18;100942.67;117412;1185;24635;-53
2022/06/16 04:41:33;;;;;;;7.10;1.60;;;;;;;22.35;39.14;100940.14;117387;1185;23907;-56
2022/06/16 04:44:00;;;;;;;5.90;1.30;;;;;;;22.46;38.98;100940.98;117468;1186;22800;-52
2022/06/16 04:46:27;;;;;;;4.20;1.40;;;;;;;22.56;38.78;100941.88;117404;1186;21843;-57
2022/06/16 04:48:54;;;;;;;3.90;1.60;;;;;;;22.65;38.73;100947.67;117267;1182;21850;-56
2022/06/16 04:51:21;;;;;;;8.30;2.10;;;;;;;22.75;38.51;100948.24;117435;1186;23540;-52
2022/06/16 04:53:48;;;;;;;8.50;2.30;;;;;;;22.82;38.28;100947.84;117309;1183;22905;-56
2022/06/16 04:56:16;;;;;;;4.90;1.30;;;;;;;22.85;38.32;100948.39;117427;1182;24236;-52
2022/06/16 04:58:43;;;;;;;5.00;1.40;;;;;;;22.81;38.16;100953.63;117376;1184;23621;-52
2022/06/16 05:01:10;;;;;;;3.30;1.40;;;;;;;22.71;38.45;100955.77;117417;1181;22951;-52
2022/06/16 05:03:46;;;;;;;2.70;1.10;;;;;;;22.70;38.48;100956.17;117317;1182;21887;-53
2022/06/16 05:06:13;;;;;;;3.80;1.50;;;;;;;22.72;38.60;100957.33;117440;1186;22905;-52
2022/06/16 05:08:41;;;;;;;2.60;1.50;;;;;;;22.73;38.46;100956.71;117420;1186;23446;-56
2022/06/16 05:11:09;;;;;;;7.20;1.40;;;;;;;22.75;38.44;100958.46;117437;1186;24254;-52
2022/06/16 05:13:36;;;;;;;3.50;1.40;;;;;;;22.74;38.37;100955.44;117730;1182;23459;-53
2022/06/16 05:16:03;;;;;;;3.20;1.30;;;;;;;22.73;38.45;100953.16;117416;1182;23618;-56
2022/06/16 05:18:30;;;;;;;4.20;1.60;;;;;;;22.73;38.47;100956.75;117450;1184;22895;-56
2022/06/16 05:21:09;;;;;;;4.00;1.40;;;;;;;22.73;38.48;100958.91;117338;1185;23611;-56
2022/06/16 05:23:36;;;;;;;5.30;1.80;;;;;;;22.73;38.47;100963.33;117407;1184;22314;-57
2022/06/16 05:26:04;;;;;;;3.00;1.20;;;;;;;22.72;38.26;100966.27;117427;1185;22637;-55
2022/06/16 05:28:31;;;;;;;6.40;1.30;;;;;;;22.67;38.24;100967.25;117396;1182;23461;-54
2022/06/16 05:30:58;;;;;;;4.70;1.90;;;;;;;22.66;38.23;100967.69;117383;1186;23566;-56
2022/06/16 05:33:26;;;;;;;5.70;1.40;;;;;;;22.65;38.23;100969.69;117427;1184;21849;-56
2022/06/16 05:36:00;;;;;;;4.10;1.80;;;;;;;22.66;38.03;100972.16;117362;1181;24268;-53
2022/06/16 05:38:28;;;;;;;3.90;1.30;;;;;;;22.64;38.12;100969.20;117431;1186;23529;-53
2022/06/16 05:40:58;;;;;;;4.90;1.50;;;;;;;22.69;38.28;100971.27;117327;1185;23539;-56
2022/06/16 05:43:25;;;;;;;3.10;1.10;;;;;;;22.76;38.27;100968.38;117397;1183;21890;-56
2022/06/16 05:45:52;;;;;;;3.30;1.50;;;;;;;22.81;38.22;100968.11;117434;1180;22932;-56
2022/06/16 05:48:20;;;;;;;5.60;1.70;;;;;;;22.86;38.23;100967.81;117389;1186;22905;-56
2022/06/16 05:50:48;;;;;;;4.80;1.60;;;;;;;22.92;38.35;100965.17;117513;1182;22617;-56
2022/06/16 05:53:16;;;;;;;4.80;1.50;;;;;;;23.01;38.29;100963.81;117400;1185;22610;-56
2022/06/16 05:55:43;;;;;;;5.60;1.20;;;;;;;23.10;38.28;100963.50;117438;1182;23436;-56
2022/06/16 05:58:11;;;;;;;5.90;1.60;;;;;;;23.18;38.40;100965.04;117392;1185;21859;-56
2022/06/16 06:00:38;;;;;;;3.80;1.50;;;;;;;23.28;38.27;100966.65;117382;1183;23458;-55
2022/06/16 06:03:05;;;;;;;3.60;1.20;;;;;;;23.42;38.16;100968.02;117406;1184;23788;-56
2022/06/16 06:05:33;;;;;;;3.50;1.00;;;;;;;23.55;38.15;100968.86;117395;1184;21859;-54
2022/06/16 06:16:28;;;;;;;4.00;1.40;;;;;;;24.19;37.90;100973.44;117344;1186;24143;-53
2022/06/16 06:18:56;;;;;;;4.40;1.30;;;;;;;24.42;37.85;100971.31;117343;1186;22960;-56
2022/06/16 06:24:11;;;;;;;6.70;1.60;;;;;;;24.92;37.60;100968.27;117375;1182;23435;-53
2022/06/16 06:26:38;;;;;;;2.30;1.10;;;;;;;25.23;37.63;100966.08;117316;1185;22613;-53
2022/06/16 06:29:06;;;;;;;4.70;1.20;;;;;;;25.54;37.59;100963.39;117311;1183;23423;-53
2022/06/16 06:31:33;;;;;;;3.90;1.30;;;;;;;25.90;37.58;100957.38;117420;1185;23531;-54
2022/06/16 06:34:00;;;;;;;3.90;1.10;;;;;;;26.30;37.31;100957.59;117383;1186;21972;-56
2022/06/16 06:36:27;;;;;;;6.80;1.20;;;;;;;26.65;36.86;100958.80;117393;1188;23573;-54
2022/06/16 06:38:54;;;;;;;3.00;1.10;;;;;;;26.97;36.85;100958.17;117328;1182;22984;-54
2022/06/16 06:41:22;;;;;;;3.20;1.20;;;;;;;27.28;36.70;100961.64;117393;1184;22633;-54
2022/06/16 06:43:49;;;;;;;4.30;1.00;;;;;;;27.52;36.32;100960.44;117405;1182;23647;-54
2022/06/16 06:46:16;;;;;;;4.00;1.20;;;;;;;27.66;35.65;100961.60;117358;1182;23445;-54
2022/06/16 06:48:44;;;;;;;3.50;1.30;;;;;;;27.76;35.45;100960.86;117351;1185;22221;-54
2022/06/16 06:51:12;;;;;;;3.00;1.00;;;;;;;27.83;35.15;100962.31;117393;1182;22911;-56
2022/06/16 06:53:39;;;;;;;3.10;1.00;;;;;;;27.90;35.05;100958.12;117420;1185;23376;-57
2022/06/16 06:56:06;;;;;;;2.10;1.10;;;;;;;28.00;34.90;100962.06;117504;1185;22638;-54
2022/06/16 06:58:33;;;;;;;3.30;1.20;;;;;;;28.06;34.94;100961.95;117438;1186;23548;-57
2022/06/16 07:01:01;;;;;;;2.20;0.90;;;;;;;28.14;34.73;100958.18;117415;1185;22934;-54
2022/06/16 07:03:29;;;;;;;5.40;1.30;;;;;;;28.23;34.56;100954.75;117499;1182;21856;-56
2022/06/16 07:05:56;;;;;;;5.30;1.60;;;;;;;28.33;34.53;100953.60;117438;1183;23540;-54
2022/06/16 07:08:24;;;;;;;2.30;1.10;;;;;;;28.44;34.38;100954.90;117373;1184;21849;-57
2022/06/16 07:10:51;;;;;;;6.30;1.10;;;;;;;28.52;34.24;100958.45;117374;1182;23448;-57
2022/06/16 07:13:18;;;;;;;2.20;1.00;;;;;;;28.65;34.19;100957.10;117383;1185;22385;-57
2022/06/16 07:15:46;;;;;;;6.00;1.40;;;;;;;28.79;34.11;100954.20;117459;1186;21848;-54
2022/06/16 07:18:14;;;;;;;5.10;1.20;;;;;;;28.94;33.88;100952.59;117467;1182;24157;-57
2022/06/16 07:20:41;;;;;;;15.40;2.20;;;;;;;29.09;33.81;100954.62;117424;1186;23550;-55
2022/06/16 07:23:08;;;;;;;7.20;1.70;;;;;;;29.18;33.47;100953.40;117398;1183;23570;-57
2022/06/16 07:25:35;;;;;;;7.80;1.90;;;;;;;29.23;33.40;100956.77;117454;1185;22636;-55
2022/06/16 07:28:02;;;;;;;5.20;1.20;;;;;;;29.28;33.15;100953.45;117382;1185;22977;-57
2022/06/16 07:30:29;;;;;;;4.40;1.20;;;;;;;29.32;33.01;100957.11;117427;1183;23462;-55
2022/06/16 07:32:57;;;;;;;4.00;1.00;;;;;;;29.38;32.91;100956.63;117311;1185;22003;-54
2022/06/16 07:35:25;;;;;;;3.20;1.00;;;;;;;29.51;32.54;100955.60;117403;1185;23583;-57
2022/06/16 07:37:52;;;;;;;5.20;1.10;;;;;;;29.59;32.41;100956.70;117314;1186;22620;-55
2022/06/16 07:40:19;;;;;;;3.30;1.00;;;;;;;29.66;32.07;100958.81;117346;1183;21858;-53
2022/06/16 07:42:47;;;;;;;4.30;0.90;;;;;;;29.73;31.80;100959.19;117402;1182;23547;-56
2022/06/16 07:45:14;;;;;;;3.90;1.40;;;;;;;29.71;31.40;100959.55;117366;1183;22982;-56
2022/06/16 07:47:42;;;;;;;3.10;1.10;;;;;;;29.77;31.63;100958.08;117383;1186;21865;-55
2022/06/16 07:50:09;;;;;;;3.00;1.00;;;;;;;29.83;30.92;100959.74;117448;1185;23534;-54
2022/06/16 07:52:37;;;;;;;2.50;0.80;;;;;;;29.91;31.08;100954.98;117387;1185;22915;-57
2022/06/16 07:55:07;;;;;;;4.00;0.80;;;;;;;30.13;31.00;100955.64;117392;1183;23534;-56
2022/06/16 07:57:42;;;;;;;2.40;1.00;;;;;;;30.50;30.58;100951.90;117362;1182;22839;-57
2022/06/16 08:00:11;;;;;;;3.80;1.00;;;;;;;30.85;30.59;100950.09;117412;1182;22856;-57
2022/06/16 08:02:38;;;;;;;3.50;1.00;;;;;;;31.08;30.35;100947.33;117371;1186;21855;-54
2022/06/16 08:05:06;;;;;;;5.30;1.00;;;;;;;31.18;29.91;100946.98;117471;1186;22916;-54
2022/06/16 08:07:33;;;;;;;3.10;0.90;;;;;;;31.21;29.66;100949.79;117312;1184;22509;-56
2022/06/16 08:10:00;;;;;;;2.70;0.80;;;;;;;31.36;29.85;100947.77;117390;1184;21849;-57
2022/06/16 08:12:28;;;;;;;4.30;1.10;;;;;;;31.44;29.83;100944.80;117393;1184;23435;-55
2022/06/16 08:14:55;;;;;;;2.80;1.10;;;;;;;31.48;29.51;100949.22;117515;1182;22976;-55
2022/06/16 08:17:27;;;;;;;4.30;1.20;;;;;;;31.39;29.42;100948.86;117412;1184;23458;-55
2022/06/16 08:19:55;;;;;;;4.30;1.70;;;;;;;31.38;29.56;100949.69;117231;1185;23030;-53
2022/06/16 08:22:22;;;;;;;2.80;1.00;;;;;;;31.54;29.10;100944.27;117365;1184;21847;-53
2022/06/16 08:24:49;;;;;;;2.20;0.90;;;;;;;31.56;28.78;100941.95;117343;1183;21966;-54
2022/06/16 08:27:18;;;;;;;5.40;1.00;;;;;;;31.53;28.96;100942.19;117377;1186;22922;-56
2022/06/16 08:29:46;;;;;;;5.70;0.80;;;;;;;31.67;28.65;100940.21;117412;1184;23462;-54
2022/06/16 08:32:14;;;;;;;5.70;0.80;;;;;;;31.73;28.28;100940.19;117407;1182;24134;-55
2022/06/16 08:34:42;;;;;;;2.10;0.90;;;;;;;31.54;27.88;100939.04;117376;1182;21839;-55
2022/06/16 08:37:09;;;;;;;2.30;0.80;;;;;;;31.22;27.90;100942.48;117404;1186;24148;-55
2022/06/16 08:39:36;;;;;;;6.80;2.40;;;;;;;31.04;27.97;100946.40;117416;1183;24716;-54
2022/06/16 08:42:45;;;;;;;6.20;3.50;;;;;;;31.10;27.97;100944.79;117401;1186;21892;-54
2022/06/16 08:45:19;;;;;;;2.90;1.60;;;;;;;31.22;28.19;100942.52;116869;1185;23544;-53
2022/06/16 08:47:52;;;;;;;3.00;1.20;;;;;;;31.59;28.36;100939.10;117428;1185;21849;-55
2022/06/16 08:50:32;;;;;;;15.10;1.50;;;;;;;32.11;27.70;100934.48;117391;1185;22915;-54
2022/06/16 08:53:08;;;;;;;2.20;0.80;;;;;;;32.38;27.28;100930.88;117389;1184;21864;-55
2022/06/16 08:55:41;;;;;;;3.60;0.90;;;;;;;32.44;27.01;100931.56;117361;1183;23563;-55
2022/06/16 08:58:33;;;;;;;2.10;0.80;;;;;;;32.35;26.79;100934.77;117418;1184;23554;-54
2022/06/16 09:01:08;;;;;;;4.00;1.20;;;;;;;32.27;26.60;100936.02;117380;1182;23560;-54
2022/06/16 09:04:00;;;;;;;6.10;1.00;;;;;;;32.36;26.85;100931.61;117479;1185;22998;-58
2022/06/16 09:06:34;;;;;;;2.60;1.00;;;;;;;32.50;26.93;100932.81;117329;1186;22154;-56
2022/06/16 09:12:39;;;;;;;7.60;1.20;;;;;;;32.73;26.43;100936.53;117375;1182;22627;-55
2022/06/16 09:15:29;;;;;;;2.40;1.10;;;;;;;32.51;26.12;100930.71;117343;1184;23564;-55
2022/06/16 09:18:24;;;;;;;4.60;1.40;;;;;;;32.23;26.36;100932.64;117246;1186;21849;-55
2022/06/16 09:21:10;;;;;;;1.70;0.90;;;;;;;32.14;26.60;100931.80;117397;1186;22639;-55
2022/06/16 09:23:51;;;;;;;4.00;0.90;;;;;;;32.12;26.74;100931.09;117401;1182;22785;-54
2022/06/16 09:26:33;;;;;;;4.50;1.20;;;;;;;32.23;26.27;100925.16;117402;1185;23436;-54
2022/06/16 09:29:12;;;;;;;2.80;0.80;;;;;;;32.24;26.31;100921.38;117413;1181;23563;-55
2022/06/16 09:31:41;;;;;;;3.70;1.00;;;;;;;32.29;26.05;100924.96;117365;1185;22017;-57
2022/06/16 09:34:12;;;;;;;2.20;0.70;;;;;;;32.28;25.97;100918.84;117409;1185;23022;-55
2022/06/16 09:36:43;;;;;;;5.10;1.00;;;;;;;32.35;26.30;100913.86;117394;1184;23542;-55
2022/06/16 09:39:15;;;;;;;3.30;0.90;;;;;;;32.45;26.01;100910.16;117511;1186;22892;-55
2022/06/16 09:45:28;;;;;;;23.70;3.50;;;;;;;32.19;25.54;100903.17;117396;1185;22903;-54
2022/06/16 09:48:09;;;;;;;2.30;1.20;;;;;;;31.93;25.24;100906.04;117272;1186;23483;-57
2022/06/16 09:50:56;;;;;;;3.60;0.90;;;;;;;31.90;25.59;100907.76;117379;1185;23353;-54
2022/06/16 09:53:33;;;;;;;5.20;0.80;;;;;;;32.33;25.72;100902.58;117446;1185;21869;-53
2022/06/16 09:56:26;;;;;;;2.00;0.70;;;;;;;32.74;25.79;100900.51;117483;1185;22977;-56
2022/06/16 09:59:08;;;;;;;3.80;1.00;;;;;;;33.25;26.09;100898.39;117503;1185;24157;-56
2022/06/16 10:01:51;;;;;;;3.60;1.00;;;;;;;33.84;25.99;100890.95;117421;1182;23554;-54
2022/06/16 10:04:18;;;;;;;1.80;0.80;;;;;;;34.59;25.84;100885.52;117398;1186;22023;-54
2022/06/16 10:07:24;;;;;;;4.50;1.10;;;;;;;35.06;25.65;100882.91;117405;1183;23459;-56
2022/06/16 10:10:09;;;;;;;2.60;1.20;;;;;;;35.57;24.76;100879.59;117357;1185;21854;-58
2022/06/16 10:13:01;;;;;;;2.30;0.90;;;;;;;35.43;24.48;100885.81;117395;1183;23551;-56
2022/06/16 10:15:35;;;;;;;2.90;1.10;;;;;;;35.24;24.08;100885.56;117410;1186;21849;-58
2022/06/16 10:18:03;;;;;;;4.30;1.00;;;;;;;34.86;23.93;100885.64;117458;1186;23702;-57
2022/06/16 10:20:31;;;;;;;2.70;0.90;;;;;;;34.23;23.73;100888.00;117403;1184;23503;-55
2022/06/16 10:23:21;;;;;;;2.20;0.80;;;;;;;33.69;23.49;100893.96;117301;1182;23589;-57
2022/06/16 10:25:54;;;;;;;2.20;1.00;;;;;;;33.21;23.72;100892.73;117287;1185;24149;-57
2022/06/16 10:28:34;;;;;;;6.40;1.30;;;;;;;33.02;23.54;100886.91;117263;1184;22938;-57
2022/06/16 10:31:02;;;;;;;1.60;0.80;;;;;;;33.04;23.77;100889.52;117322;1185;23279;-57
2022/06/16 10:33:34;;;;;;;3.00;1.20;;;;;;;33.09;23.67;100888.15;117447;1182;22970;-56
2022/06/16 10:36:20;;;;;;;4.20;1.20;;;;;;;33.03;23.61;100894.02;117314;1186;21858;-56
2022/06/16 10:39:16;;;;;;;3.80;1.00;;;;;;;32.88;23.58;100891.08;117319;1182;24217;-57
2022/06/16 10:41:52;;;;;;;1.90;0.80;;;;;;;32.76;23.55;100888.06;117338;1185;23553;-55
2022/06/16 10:44:19;;;;;;;3.80;0.90;;;;;;;32.80;23.58;100886.09;117406;1183;23582;-55
2022/06/16 10:46:52;;;;;;;6.90;1.30;;;;;;;32.86;23.74;100884.21;117276;1187;21852;-56
2022/06/16 10:49:22;;;;;;;1.40;0.80;;;;;;;33.10;23.85;100881.88;117334;1184;21852;-57
2022/06/16 10:52:11;;;;;;;2.00;1.00;;;;;;;33.27;23.56;100880.86;117067;1185;21860;-57
2022/06/16 10:54:59;;;;;;;4.90;1.10;;;;;;;33.21;23.35;100878.45;117173;1186;23544;-56
2022/06/16 10:57:29;;;;;;;2.50;1.10;;;;;;;33.15;23.20;100881.34;117337;1185;23442;-57
2022/06/16 11:00:06;;;;;;;4.40;1.30;;;;;;;33.31;23.17;100875.61;117391;1185;21935;-57
2022/06/16 11:02:35;;;;;;;8.30;1.20;;;;;;;33.38;23.26;100878.71;117036;1187;22018;-56
2022/06/16 11:05:09;;;;;;;5.60;1.10;;;;;;;33.34;23.02;100875.98;117338;1185;21856;-57
2022/06/16 11:07:38;;;;;;;3.20;1.10;;;;;;;33.37;22.98;100874.10;117131;1186;23545;-57
2022/06/16 11:10:30;;;;;;;3.70;1.10;;;;;;;33.44;22.78;100871.55;117198;1182;23810;-56
2022/06/16 11:12:58;;;;;;;2.80;1.20;;;;;;;33.43;22.86;100867.45;117298;1185;22941;-57
2022/06/16 11:15:54;;;;;;;3.30;0.90;;;;;;;33.61;22.87;100863.84;117177;1186;21858;-58
2022/06/16 11:18:23;;;;;;;3.00;0.80;;;;;;;34.01;23.17;100858.61;117215;1185;23082;-56
2022/06/16 11:20:53;;;;;;;2.50;1.00;;;;;;;34.15;22.93;100861.03;117166;1182;22642;-56
2022/06/16 11:23:43;;;;;;;7.20;1.30;;;;;;;34.00;22.79;100859.88;117446;1185;21852;-56
2022/06/16 11:26:16;;;;;;;7.30;1.40;;;;;;;33.73;22.84;100865.55;117315;1186;21854;-55
2022/06/16 11:28:45;;;;;;;3.20;0.90;;;;;;;33.58;22.64;100867.42;117353;1182;23586;-54
2022/06/16 11:31:17;;;;;;;2.30;1.20;;;;;;;33.36;22.77;100866.15;117438;1186;22314;-55
2022/06/16 11:34:28;;;;;;;2.50;1.20;;;;;;;33.26;23.54;100867.58;117378;1186;22914;-57
2022/06/16 11:37:07;;;;;;;4.20;1.10;;;;;;;33.58;24.46;100863.06;116844;1188;23704;-57
2022/06/16 11:40:06;;;;;;;3.30;1.10;;;;;;;34.05;24.90;100859.02;117044;1188;21862;-57
2022/06/16 11:42:52;;;;;;;2.70;1.10;;;;;;;34.45;25.41;100849.13;118125;1184;22305;-54
2022/06/16 11:45:47;;;;;;;1.40;0.70;;;;;;;34.94;25.83;100842.87;117971;1182;23494;-57
2022/06/16 11:48:26;;;;;;;3.10;0.90;;;;;;;35.16;25.74;100841.85;117384;1182;22982;-56
2022/06/16 11:51:04;;;;;;;2.80;1.10;;;;;;;35.00;25.56;100849.86;117436;1182;23531;-56
2022/06/16 11:53:45;;;;;;;3.30;0.90;;;;;;;34.64;25.06;100849.31;117432;1183;21881;-57
2022/06/16 11:56:19;;;;;;;4.80;1.20;;;;;;;34.28;24.30;100845.60;117354;1183;22802;-57
2022/06/16 11:59:20;;;;;;;4.80;1.00;;;;;;;34.00;24.31;100838.14;117403;1185;21896;-55
2022/06/16 12:01:51;;;;;;;6.00;1.20;;;;;;;33.95;24.47;100831.91;117259;1183;22803;-56
2022/06/16 12:04:35;;;;;;;1.80;1.20;;;;;;;33.95;24.97;100830.31;117370;1184;21855;-55
2022/06/16 12:07:10;;;;;;;4.90;1.20;;;;;;;33.99;25.63;100834.86;117367;1186;21840;-54
2022/06/16 12:09:58;;;;;;;1.80;0.80;;;;;;;34.04;25.93;100834.00;117364;1177;24160;-55